sensor_id;sensor_type;location;lat;lon;timestamp;P1;durP1;ratioP1;P2;durP2;ratioP2
6809;SDS011;3443;48.812;9.112;2023-03-04T00:00:19;35.87;;;21.83;;
6809;SDS011;3443;48.812;9.112;2023-03-04T00:02:44;32.13;;;22.67;;
6809;SDS011;3443;48.812;9.112;2023-03-04T00:05:10;33.17;;;21.57;;
6809;SDS011;3443;48.812;9.112;2023-03-04T00:07:36;30.57;;;21.53;;
6809;SDS011;3443;48.812;9.112;2023-03-04T00:10:01;29.93;;;20.27;;
6809;SDS011;3443;48.812;9.112;2023-03-04T00:12:27;31.07;;;22.10;;
6809;SDS011;3443;48.812;9.112;2023-03-04T00:14:53;29.90;;;20.67;;
6809;SDS011;3443;48.812;9.112;2023-03-04T00:17:18;31.87;;;22.50;;
6809;SDS011;3443;48.812;9.112;2023-03-04T00:19:44;29.93;;;20.43;;
6809;SDS011;3443;48.812;9.112;2023-03-04T00:22:09;32.13;;;21.97;;
6809;SDS011;3443;48.812;9.112;2023-03-04T00:24:35;36.13;;;23.10;;
6809;SDS011;3443;48.812;9.112;2023-03-04T00:27:01;31.20;;;21.10;;
6809;SDS011;3443;48.812;9.112;2023-03-04T00:29:26;27.90;;;19.93;;
6809;SDS011;3443;48.812;9.112;2023-03-04T00:31:52;32.70;;;21.37;;
6809;SDS011;3443;48.812;9.112;2023-03-04T00:34:18;30.00;;;20.27;;
6809;SDS011;3443;48.812;9.112;2023-03-04T00:36:44;33.27;;;22.70;;
6809;SDS011;3443;48.812;9.112;2023-03-04T00:39:10;30.23;;;21.13;;
6809;SDS011;3443;48.812;9.112;2023-03-04T00:41:36;30.07;;;20.83;;
6809;SDS011;3443;48.812;9.112;2023-03-04T00:44:02;30.87;;;21.27;;
6809;SDS011;3443;48.812;9.112;2023-03-04T00:46:28;32.27;;;20.87;;
6809;SDS011;3443;48.812;9.112;2023-03-04T00:48:54;33.87;;;21.07;;
6809;SDS011;3443;48.812;9.112;2023-03-04T00:51:19;31.73;;;20.97;;
6809;SDS011;3443;48.812;9.112;2023-03-04T00:53:45;31.70;;;20.43;;
6809;SDS011;3443;48.812;9.112;2023-03-04T00:56:11;28.97;;;20.37;;
6809;SDS011;3443;48.812;9.112;2023-03-04T00:58:37;31.17;;;20.77;;
6809;SDS011;3443;48.812;9.112;2023-03-04T01:01:04;32.53;;;20.83;;
6809;SDS011;3443;48.812;9.112;2023-03-04T01:03:33;28.47;;;19.67;;
6809;SDS011;3443;48.812;9.112;2023-03-04T01:05:58;34.30;;;21.90;;
6809;SDS011;3443;48.812;9.112;2023-03-04T01:08:24;28.40;;;20.43;;
6809;SDS011;3443;48.812;9.112;2023-03-04T01:10:50;29.47;;;20.30;;
6809;SDS011;3443;48.812;9.112;2023-03-04T01:13:16;33.73;;;23.00;;
6809;SDS011;3443;48.812;9.112;2023-03-04T01:15:41;34.87;;;22.93;;
6809;SDS011;3443;48.812;9.112;2023-03-04T01:18:07;34.43;;;23.07;;
6809;SDS011;3443;48.812;9.112;2023-03-04T01:20:32;35.63;;;23.40;;
6809;SDS011;3443;48.812;9.112;2023-03-04T01:22:58;34.27;;;23.10;;
6809;SDS011;3443;48.812;9.112;2023-03-04T01:25:24;36.77;;;22.57;;
6809;SDS011;3443;48.812;9.112;2023-03-04T01:27:49;33.50;;;20.97;;
6809;SDS011;3443;48.812;9.112;2023-03-04T01:30:15;33.50;;;21.87;;
6809;SDS011;3443;48.812;9.112;2023-03-04T01:32:40;32.63;;;21.67;;
6809;SDS011;3443;48.812;9.112;2023-03-04T01:35:06;31.47;;;20.37;;
6809;SDS011;3443;48.812;9.112;2023-03-04T01:37:32;29.10;;;20.10;;
6809;SDS011;3443;48.812;9.112;2023-03-04T01:39:57;33.60;;;20.93;;
6809;SDS011;3443;48.812;9.112;2023-03-04T01:42:23;33.03;;;21.63;;
6809;SDS011;3443;48.812;9.112;2023-03-04T01:44:51;30.30;;;20.47;;
6809;SDS011;3443;48.812;9.112;2023-03-04T01:47:17;33.60;;;20.57;;
6809;SDS011;3443;48.812;9.112;2023-03-04T01:49:44;31.87;;;21.13;;
6809;SDS011;3443;48.812;9.112;2023-03-04T01:52:14;30.90;;;20.80;;
6809;SDS011;3443;48.812;9.112;2023-03-04T01:54:40;29.10;;;21.10;;
6809;SDS011;3443;48.812;9.112;2023-03-04T01:57:12;29.23;;;19.40;;
6809;SDS011;3443;48.812;9.112;2023-03-04T02:02:45;30.47;;;21.30;;
6809;SDS011;3443;48.812;9.112;2023-03-04T02:05:12;28.80;;;19.57;;
6809;SDS011;3443;48.812;9.112;2023-03-04T02:07:39;31.57;;;20.53;;
6809;SDS011;3443;48.812;9.112;2023-03-04T02:10:06;28.00;;;20.33;;
6809;SDS011;3443;48.812;9.112;2023-03-04T02:12:32;26.77;;;19.17;;
6809;SDS011;3443;48.812;9.112;2023-03-04T02:14:58;27.93;;;19.40;;
6809;SDS011;3443;48.812;9.112;2023-03-04T02:17:24;29.43;;;20.07;;
6809;SDS011;3443;48.812;9.112;2023-03-04T02:22:26;27.97;;;18.30;;
6809;SDS011;3443;48.812;9.112;2023-03-04T02:24:54;31.40;;;20.47;;
6809;SDS011;3443;48.812;9.112;2023-03-04T02:27:24;28.50;;;20.57;;
6809;SDS011;3443;48.812;9.112;2023-03-04T02:29:50;30.07;;;20.83;;
6809;SDS011;3443;48.812;9.112;2023-03-04T02:32:16;29.27;;;21.17;;
6809;SDS011;3443;48.812;9.112;2023-03-04T02:34:45;32.70;;;22.27;;
6809;SDS011;3443;48.812;9.112;2023-03-04T02:37:13;29.10;;;20.67;;
6809;SDS011;3443;48.812;9.112;2023-03-04T02:39:43;27.97;;;19.80;;
6809;SDS011;3443;48.812;9.112;2023-03-04T02:42:10;31.67;;;20.37;;
6809;SDS011;3443;48.812;9.112;2023-03-04T02:44:37;27.87;;;19.73;;
6809;SDS011;3443;48.812;9.112;2023-03-04T02:47:06;28.50;;;20.30;;
6809;SDS011;3443;48.812;9.112;2023-03-04T02:49:35;28.27;;;19.60;;
6809;SDS011;3443;48.812;9.112;2023-03-04T02:52:06;26.10;;;17.97;;
6809;SDS011;3443;48.812;9.112;2023-03-04T02:54:43;25.50;;;18.67;;
6809;SDS011;3443;48.812;9.112;2023-03-04T02:57:09;25.80;;;18.33;;
6809;SDS011;3443;48.812;9.112;2023-03-04T02:59:36;26.83;;;18.73;;
6809;SDS011;3443;48.812;9.112;2023-03-04T03:02:04;28.17;;;18.80;;
6809;SDS011;3443;48.812;9.112;2023-03-04T03:04:31;24.70;;;16.97;;
6809;SDS011;3443;48.812;9.112;2023-03-04T03:06:57;26.70;;;19.33;;
6809;SDS011;3443;48.812;9.112;2023-03-04T03:09:23;25.63;;;17.87;;
6809;SDS011;3443;48.812;9.112;2023-03-04T03:11:48;24.80;;;18.03;;
6809;SDS011;3443;48.812;9.112;2023-03-04T03:14:14;26.37;;;18.17;;
6809;SDS011;3443;48.812;9.112;2023-03-04T03:16:40;30.53;;;19.67;;
6809;SDS011;3443;48.812;9.112;2023-03-04T03:19:05;27.97;;;19.30;;
6809;SDS011;3443;48.812;9.112;2023-03-04T03:21:31;28.00;;;18.33;;
6809;SDS011;3443;48.812;9.112;2023-03-04T03:23:56;24.97;;;18.10;;
6809;SDS011;3443;48.812;9.112;2023-03-04T03:26:22;25.33;;;18.77;;
6809;SDS011;3443;48.812;9.112;2023-03-04T03:28:48;26.53;;;19.30;;
6809;SDS011;3443;48.812;9.112;2023-03-04T03:31:13;30.73;;;19.33;;
6809;SDS011;3443;48.812;9.112;2023-03-04T03:33:39;25.47;;;17.80;;
6809;SDS011;3443;48.812;9.112;2023-03-04T03:36:05;29.97;;;20.53;;
6809;SDS011;3443;48.812;9.112;2023-03-04T03:38:32;27.37;;;19.67;;
6809;SDS011;3443;48.812;9.112;2023-03-04T03:40:57;27.00;;;19.03;;
6809;SDS011;3443;48.812;9.112;2023-03-04T03:43:23;28.53;;;19.70;;
6809;SDS011;3443;48.812;9.112;2023-03-04T03:45:49;28.63;;;19.03;;
6809;SDS011;3443;48.812;9.112;2023-03-04T03:48:16;27.87;;;18.93;;
6809;SDS011;3443;48.812;9.112;2023-03-04T03:50:41;24.87;;;18.83;;
6809;SDS011;3443;48.812;9.112;2023-03-04T03:53:07;24.87;;;18.93;;
6809;SDS011;3443;48.812;9.112;2023-03-04T03:55:33;27.30;;;19.70;;
6809;SDS011;3443;48.812;9.112;2023-03-04T03:57:58;26.30;;;18.37;;
6809;SDS011;3443;48.812;9.112;2023-03-04T04:00:24;26.00;;;18.27;;
6809;SDS011;3443;48.812;9.112;2023-03-04T04:02:50;27.00;;;19.57;;
6809;SDS011;3443;48.812;9.112;2023-03-04T04:05:17;26.30;;;18.60;;
6809;SDS011;3443;48.812;9.112;2023-03-04T04:07:42;26.43;;;19.13;;
6809;SDS011;3443;48.812;9.112;2023-03-04T04:10:09;26.37;;;19.50;;
6809;SDS011;3443;48.812;9.112;2023-03-04T04:12:35;27.37;;;18.57;;
6809;SDS011;3443;48.812;9.112;2023-03-04T04:15:01;25.40;;;18.17;;
6809;SDS011;3443;48.812;9.112;2023-03-04T04:17:26;26.60;;;18.80;;
6809;SDS011;3443;48.812;9.112;2023-03-04T04:19:52;25.30;;;17.90;;
6809;SDS011;3443;48.812;9.112;2023-03-04T04:22:18;28.57;;;18.20;;
6809;SDS011;3443;48.812;9.112;2023-03-04T04:24:44;27.27;;;18.83;;
6809;SDS011;3443;48.812;9.112;2023-03-04T04:27:10;29.20;;;18.73;;
6809;SDS011;3443;48.812;9.112;2023-03-04T04:29:36;25.40;;;18.27;;
6809;SDS011;3443;48.812;9.112;2023-03-04T04:32:02;25.33;;;17.77;;
6809;SDS011;3443;48.812;9.112;2023-03-04T04:34:28;24.57;;;17.27;;
6809;SDS011;3443;48.812;9.112;2023-03-04T04:36:53;24.83;;;18.10;;
6809;SDS011;3443;48.812;9.112;2023-03-04T04:39:19;27.37;;;18.67;;
6809;SDS011;3443;48.812;9.112;2023-03-04T04:41:45;25.13;;;17.57;;
6809;SDS011;3443;48.812;9.112;2023-03-04T04:44:11;26.53;;;18.77;;
6809;SDS011;3443;48.812;9.112;2023-03-04T04:46:39;25.87;;;18.17;;
6809;SDS011;3443;48.812;9.112;2023-03-04T04:49:05;24.33;;;17.13;;
6809;SDS011;3443;48.812;9.112;2023-03-04T04:51:31;25.77;;;17.93;;
6809;SDS011;3443;48.812;9.112;2023-03-04T04:53:58;27.77;;;18.50;;
6809;SDS011;3443;48.812;9.112;2023-03-04T04:56:25;29.57;;;19.47;;
6809;SDS011;3443;48.812;9.112;2023-03-04T04:58:52;27.57;;;19.53;;
6809;SDS011;3443;48.812;9.112;2023-03-04T05:01:19;25.80;;;17.73;;
6809;SDS011;3443;48.812;9.112;2023-03-04T05:03:45;28.90;;;18.37;;
6809;SDS011;3443;48.812;9.112;2023-03-04T05:06:11;26.80;;;18.43;;
6809;SDS011;3443;48.812;9.112;2023-03-04T05:08:37;25.83;;;17.63;;
6809;SDS011;3443;48.812;9.112;2023-03-04T05:11:03;26.47;;;18.37;;
6809;SDS011;3443;48.812;9.112;2023-03-04T05:13:30;26.87;;;18.03;;
6809;SDS011;3443;48.812;9.112;2023-03-04T05:15:56;22.63;;;17.57;;
6809;SDS011;3443;48.812;9.112;2023-03-04T05:18:22;25.77;;;18.23;;
6809;SDS011;3443;48.812;9.112;2023-03-04T05:20:51;24.20;;;17.63;;
6809;SDS011;3443;48.812;9.112;2023-03-04T05:23:21;23.67;;;16.77;;
6809;SDS011;3443;48.812;9.112;2023-03-04T05:28:18;25.83;;;17.63;;
6809;SDS011;3443;48.812;9.112;2023-03-04T05:30:44;27.03;;;18.80;;
6809;SDS011;3443;48.812;9.112;2023-03-04T05:33:11;25.40;;;18.60;;
6809;SDS011;3443;48.812;9.112;2023-03-04T05:35:38;26.43;;;17.70;;
6809;SDS011;3443;48.812;9.112;2023-03-04T05:38:06;25.43;;;17.53;;
6809;SDS011;3443;48.812;9.112;2023-03-04T05:40:33;23.33;;;16.87;;
6809;SDS011;3443;48.812;9.112;2023-03-04T05:42:58;25.30;;;17.37;;
6809;SDS011;3443;48.812;9.112;2023-03-04T05:45:25;25.57;;;17.87;;
6809;SDS011;3443;48.812;9.112;2023-03-04T05:47:50;25.73;;;17.53;;
6809;SDS011;3443;48.812;9.112;2023-03-04T05:50:16;22.93;;;17.13;;
6809;SDS011;3443;48.812;9.112;2023-03-04T05:52:43;23.57;;;16.73;;
6809;SDS011;3443;48.812;9.112;2023-03-04T05:55:09;23.27;;;16.90;;
6809;SDS011;3443;48.812;9.112;2023-03-04T05:57:34;23.57;;;17.30;;
6809;SDS011;3443;48.812;9.112;2023-03-04T06:00:00;23.43;;;16.67;;
6809;SDS011;3443;48.812;9.112;2023-03-04T06:02:26;24.37;;;17.17;;
6809;SDS011;3443;48.812;9.112;2023-03-04T06:04:52;27.10;;;18.10;;
6809;SDS011;3443;48.812;9.112;2023-03-04T06:07:17;23.27;;;17.53;;
6809;SDS011;3443;48.812;9.112;2023-03-04T06:09:43;25.43;;;17.47;;
6809;SDS011;3443;48.812;9.112;2023-03-04T06:12:09;23.23;;;16.60;;
6809;SDS011;3443;48.812;9.112;2023-03-04T06:14:36;24.10;;;17.73;;
6809;SDS011;3443;48.812;9.112;2023-03-04T06:17:01;23.73;;;16.93;;
6809;SDS011;3443;48.812;9.112;2023-03-04T06:19:27;27.40;;;18.30;;
6809;SDS011;3443;48.812;9.112;2023-03-04T06:21:52;25.17;;;17.33;;
6809;SDS011;3443;48.812;9.112;2023-03-04T06:24:18;25.90;;;17.93;;
6809;SDS011;3443;48.812;9.112;2023-03-04T06:26:44;23.67;;;17.50;;
6809;SDS011;3443;48.812;9.112;2023-03-04T06:29:09;23.90;;;17.83;;
6809;SDS011;3443;48.812;9.112;2023-03-04T06:31:35;27.33;;;18.90;;
6809;SDS011;3443;48.812;9.112;2023-03-04T06:34:00;27.33;;;18.07;;
6809;SDS011;3443;48.812;9.112;2023-03-04T06:36:26;30.73;;;19.80;;
6809;SDS011;3443;48.812;9.112;2023-03-04T06:38:52;28.20;;;18.63;;
6809;SDS011;3443;48.812;9.112;2023-03-04T06:41:17;24.57;;;16.93;;
6809;SDS011;3443;48.812;9.112;2023-03-04T06:43:43;29.30;;;19.30;;
6809;SDS011;3443;48.812;9.112;2023-03-04T06:46:09;29.90;;;19.67;;
6809;SDS011;3443;48.812;9.112;2023-03-04T06:48:35;28.07;;;18.50;;
6809;SDS011;3443;48.812;9.112;2023-03-04T06:51:05;33.17;;;19.37;;
6809;SDS011;3443;48.812;9.112;2023-03-04T06:53:31;31.07;;;20.97;;
6809;SDS011;3443;48.812;9.112;2023-03-04T06:55:57;32.70;;;20.47;;
6809;SDS011;3443;48.812;9.112;2023-03-04T06:58:22;32.67;;;20.63;;
6809;SDS011;3443;48.812;9.112;2023-03-04T07:00:48;33.37;;;22.47;;
6809;SDS011;3443;48.812;9.112;2023-03-04T07:03:13;32.23;;;21.07;;
6809;SDS011;3443;48.812;9.112;2023-03-04T07:05:39;34.67;;;22.77;;
6809;SDS011;3443;48.812;9.112;2023-03-04T07:08:06;40.07;;;24.40;;
6809;SDS011;3443;48.812;9.112;2023-03-04T07:10:31;38.60;;;25.20;;
6809;SDS011;3443;48.812;9.112;2023-03-04T07:12:57;39.00;;;24.43;;
6809;SDS011;3443;48.812;9.112;2023-03-04T07:15:22;40.33;;;25.40;;
6809;SDS011;3443;48.812;9.112;2023-03-04T07:17:48;37.23;;;23.17;;
6809;SDS011;3443;48.812;9.112;2023-03-04T07:20:14;39.17;;;24.83;;
6809;SDS011;3443;48.812;9.112;2023-03-04T07:22:39;36.93;;;24.07;;
6809;SDS011;3443;48.812;9.112;2023-03-04T07:25:05;38.53;;;24.73;;
6809;SDS011;3443;48.812;9.112;2023-03-04T07:27:31;37.87;;;23.63;;
6809;SDS011;3443;48.812;9.112;2023-03-04T07:29:57;33.43;;;22.00;;
6809;SDS011;3443;48.812;9.112;2023-03-04T07:32:22;34.23;;;21.90;;
6809;SDS011;3443;48.812;9.112;2023-03-04T07:34:48;33.03;;;21.50;;
6809;SDS011;3443;48.812;9.112;2023-03-04T07:37:13;33.10;;;20.87;;
6809;SDS011;3443;48.812;9.112;2023-03-04T07:39:39;32.47;;;21.80;;
6809;SDS011;3443;48.812;9.112;2023-03-04T07:42:04;29.27;;;19.43;;
6809;SDS011;3443;48.812;9.112;2023-03-04T07:44:30;31.10;;;20.27;;
6809;SDS011;3443;48.812;9.112;2023-03-04T07:46:55;28.33;;;18.10;;
6809;SDS011;3443;48.812;9.112;2023-03-04T07:49:21;28.83;;;19.57;;
6809;SDS011;3443;48.812;9.112;2023-03-04T07:51:46;30.07;;;20.13;;
6809;SDS011;3443;48.812;9.112;2023-03-04T07:56:43;28.90;;;18.67;;
6809;SDS011;3443;48.812;9.112;2023-03-04T07:59:09;26.57;;;18.10;;
6809;SDS011;3443;48.812;9.112;2023-03-04T08:01:35;30.87;;;18.97;;
6809;SDS011;3443;48.812;9.112;2023-03-04T08:04:02;31.07;;;19.17;;
6809;SDS011;3443;48.812;9.112;2023-03-04T08:06:29;27.80;;;19.20;;
6809;SDS011;3443;48.812;9.112;2023-03-04T08:08:55;27.03;;;16.10;;
6809;SDS011;3443;48.812;9.112;2023-03-04T08:11:23;28.87;;;19.77;;
6809;SDS011;3443;48.812;9.112;2023-03-04T08:13:50;31.00;;;19.57;;
6809;SDS011;3443;48.812;9.112;2023-03-04T08:16:19;27.00;;;17.77;;
6809;SDS011;3443;48.812;9.112;2023-03-04T08:18:47;27.30;;;19.07;;
6809;SDS011;3443;48.812;9.112;2023-03-04T08:21:16;31.53;;;20.43;;
6809;SDS011;3443;48.812;9.112;2023-03-04T08:23:44;29.67;;;19.80;;
6809;SDS011;3443;48.812;9.112;2023-03-04T08:26:12;28.43;;;19.13;;
6809;SDS011;3443;48.812;9.112;2023-03-04T08:28:59;29.77;;;19.53;;
6809;SDS011;3443;48.812;9.112;2023-03-04T08:31:26;30.07;;;20.93;;
6809;SDS011;3443;48.812;9.112;2023-03-04T08:33:52;30.37;;;18.50;;
6809;SDS011;3443;48.812;9.112;2023-03-04T08:36:17;28.23;;;19.53;;
6809;SDS011;3443;48.812;9.112;2023-03-04T08:38:43;32.67;;;19.50;;
6809;SDS011;3443;48.812;9.112;2023-03-04T08:41:09;31.33;;;20.37;;
6809;SDS011;3443;48.812;9.112;2023-03-04T08:43:35;33.47;;;19.50;;
6809;SDS011;3443;48.812;9.112;2023-03-04T08:46:00;31.80;;;19.17;;
6809;SDS011;3443;48.812;9.112;2023-03-04T08:48:27;28.77;;;20.17;;
6809;SDS011;3443;48.812;9.112;2023-03-04T08:50:52;28.67;;;18.23;;
6809;SDS011;3443;48.812;9.112;2023-03-04T08:53:18;27.90;;;19.73;;
6809;SDS011;3443;48.812;9.112;2023-03-04T08:55:45;28.17;;;18.90;;
6809;SDS011;3443;48.812;9.112;2023-03-04T08:58:11;28.23;;;19.07;;
6809;SDS011;3443;48.812;9.112;2023-03-04T09:00:38;28.27;;;19.03;;
6809;SDS011;3443;48.812;9.112;2023-03-04T09:03:07;26.47;;;18.53;;
6809;SDS011;3443;48.812;9.112;2023-03-04T09:05:32;25.93;;;16.67;;
6809;SDS011;3443;48.812;9.112;2023-03-04T09:07:58;26.10;;;17.63;;
6809;SDS011;3443;48.812;9.112;2023-03-04T09:10:24;26.90;;;17.53;;
6809;SDS011;3443;48.812;9.112;2023-03-04T09:12:50;25.60;;;17.73;;
6809;SDS011;3443;48.812;9.112;2023-03-04T09:15:16;26.63;;;17.77;;
6809;SDS011;3443;48.812;9.112;2023-03-04T09:17:41;26.73;;;18.17;;
6809;SDS011;3443;48.812;9.112;2023-03-04T09:20:07;26.60;;;17.87;;
6809;SDS011;3443;48.812;9.112;2023-03-04T09:25:07;26.97;;;18.30;;
6809;SDS011;3443;48.812;9.112;2023-03-04T09:27:33;30.00;;;17.83;;
6809;SDS011;3443;48.812;9.112;2023-03-04T09:30:00;25.73;;;16.80;;
6809;SDS011;3443;48.812;9.112;2023-03-04T09:32:25;24.10;;;15.67;;
6809;SDS011;3443;48.812;9.112;2023-03-04T09:34:51;24.50;;;16.67;;
6809;SDS011;3443;48.812;9.112;2023-03-04T09:37:16;28.30;;;17.27;;
6809;SDS011;3443;48.812;9.112;2023-03-04T09:39:42;24.27;;;16.57;;
6809;SDS011;3443;48.812;9.112;2023-03-04T09:42:08;23.90;;;16.90;;
6809;SDS011;3443;48.812;9.112;2023-03-04T09:44:40;24.03;;;16.07;;
6809;SDS011;3443;48.812;9.112;2023-03-04T09:47:25;22.40;;;15.30;;
6809;SDS011;3443;48.812;9.112;2023-03-04T09:50:10;26.60;;;16.73;;
6809;SDS011;3443;48.812;9.112;2023-03-04T10:00:24;21.43;;;14.87;;
6809;SDS011;3443;48.812;9.112;2023-03-04T10:06:25;22.13;;;14.90;;
6809;SDS011;3443;48.812;9.112;2023-03-04T10:08:59;25.27;;;15.30;;
6809;SDS011;3443;48.812;9.112;2023-03-04T10:11:38;23.20;;;16.53;;
6809;SDS011;3443;48.812;9.112;2023-03-04T10:20:00;24.10;;;16.53;;
6809;SDS011;3443;48.812;9.112;2023-03-04T10:22:32;25.87;;;16.33;;
6809;SDS011;3443;48.812;9.112;2023-03-04T10:25:01;24.43;;;16.47;;
6809;SDS011;3443;48.812;9.112;2023-03-04T10:27:49;29.70;;;17.80;;
6809;SDS011;3443;48.812;9.112;2023-03-04T10:33:13;28.27;;;19.57;;
6809;SDS011;3443;48.812;9.112;2023-03-04T10:35:45;25.83;;;17.80;;
6809;SDS011;3443;48.812;9.112;2023-03-04T10:38:18;26.20;;;18.23;;
6809;SDS011;3443;48.812;9.112;2023-03-04T10:40:46;31.10;;;18.57;;
6809;SDS011;3443;48.812;9.112;2023-03-04T10:43:20;31.27;;;19.63;;
6809;SDS011;3443;48.812;9.112;2023-03-04T10:45:46;34.73;;;21.40;;
6809;SDS011;3443;48.812;9.112;2023-03-04T10:48:23;34.57;;;21.27;;
6809;SDS011;3443;48.812;9.112;2023-03-04T10:50:50;31.03;;;20.77;;
6809;SDS011;3443;48.812;9.112;2023-03-04T10:53:24;30.73;;;21.10;;
6809;SDS011;3443;48.812;9.112;2023-03-04T10:55:57;32.80;;;20.60;;
6809;SDS011;3443;48.812;9.112;2023-03-04T10:58:23;39.33;;;21.53;;
6809;SDS011;3443;48.812;9.112;2023-03-04T11:00:58;37.97;;;22.70;;
6809;SDS011;3443;48.812;9.112;2023-03-04T11:08:47;38.83;;;23.30;;
6809;SDS011;3443;48.812;9.112;2023-03-04T11:11:32;34.67;;;22.20;;
6809;SDS011;3443;48.812;9.112;2023-03-04T11:14:08;35.93;;;22.33;;
6809;SDS011;3443;48.812;9.112;2023-03-04T11:16:51;40.17;;;23.97;;
6809;SDS011;3443;48.812;9.112;2023-03-04T11:19:18;34.63;;;22.37;;
6809;SDS011;3443;48.812;9.112;2023-03-04T11:21:46;37.57;;;24.07;;
6809;SDS011;3443;48.812;9.112;2023-03-04T11:24:26;39.30;;;23.73;;
6809;SDS011;3443;48.812;9.112;2023-03-04T11:32:17;40.73;;;26.87;;
6809;SDS011;3443;48.812;9.112;2023-03-04T11:35:01;48.10;;;27.00;;
6809;SDS011;3443;48.812;9.112;2023-03-04T11:46:17;42.30;;;27.70;;
6809;SDS011;3443;48.812;9.112;2023-03-04T11:49:06;38.73;;;24.47;;
6809;SDS011;3443;48.812;9.112;2023-03-04T11:51:40;40.50;;;25.13;;
6809;SDS011;3443;48.812;9.112;2023-03-04T11:56:56;39.73;;;24.30;;
6809;SDS011;3443;48.812;9.112;2023-03-04T11:59:33;36.53;;;23.27;;
6809;SDS011;3443;48.812;9.112;2023-03-04T12:10:14;35.73;;;24.53;;
6809;SDS011;3443;48.812;9.112;2023-03-04T12:23:31;39.27;;;24.63;;
6809;SDS011;3443;48.812;9.112;2023-03-04T12:31:55;38.13;;;22.87;;
6809;SDS011;3443;48.812;9.112;2023-03-04T12:34:29;39.43;;;23.67;;
6809;SDS011;3443;48.812;9.112;2023-03-04T12:56:31;44.33;;;26.90;;
6809;SDS011;3443;48.812;9.112;2023-03-04T12:59:04;44.13;;;27.80;;
6809;SDS011;3443;48.812;9.112;2023-03-04T13:07:12;44.60;;;27.63;;
6809;SDS011;3443;48.812;9.112;2023-03-04T13:09:56;41.13;;;26.43;;
6809;SDS011;3443;48.812;9.112;2023-03-04T13:12:26;39.50;;;24.10;;
6809;SDS011;3443;48.812;9.112;2023-03-04T13:22:59;41.60;;;22.87;;
6809;SDS011;3443;48.812;9.112;2023-03-04T13:25:49;41.67;;;24.80;;
6809;SDS011;3443;48.812;9.112;2023-03-04T13:28:40;34.63;;;21.87;;
6809;SDS011;3443;48.812;9.112;2023-03-04T13:31:11;31.70;;;21.47;;
6809;SDS011;3443;48.812;9.112;2023-03-04T13:33:43;33.20;;;22.33;;
6809;SDS011;3443;48.812;9.112;2023-03-04T13:36:31;33.93;;;20.03;;
6809;SDS011;3443;48.812;9.112;2023-03-04T13:41:46;28.90;;;17.00;;
6809;SDS011;3443;48.812;9.112;2023-03-04T13:45:27;30.80;;;17.17;;
6809;SDS011;3443;48.812;9.112;2023-03-04T13:47:16;28.10;;;15.97;;
6809;SDS011;3443;48.812;9.112;2023-03-04T13:49:44;26.90;;;16.50;;
6809;SDS011;3443;48.812;9.112;2023-03-04T13:57:58;35.50;;;18.23;;
6809;SDS011;3443;48.812;9.112;2023-03-04T14:00:24;30.80;;;16.70;;
6809;SDS011;3443;48.812;9.112;2023-03-04T14:02:51;26.10;;;14.53;;
6809;SDS011;3443;48.812;9.112;2023-03-04T14:05:16;25.17;;;14.03;;
6809;SDS011;3443;48.812;9.112;2023-03-04T14:07:42;30.17;;;16.57;;
6809;SDS011;3443;48.812;9.112;2023-03-04T14:12:40;28.07;;;16.30;;
6809;SDS011;3443;48.812;9.112;2023-03-04T14:17:38;35.70;;;20.10;;
6809;SDS011;3443;48.812;9.112;2023-03-04T14:23:22;26.30;;;15.60;;
6809;SDS011;3443;48.812;9.112;2023-03-04T14:26:05;26.37;;;14.80;;
6809;SDS011;3443;48.812;9.112;2023-03-04T14:28:43;28.27;;;16.03;;
6809;SDS011;3443;48.812;9.112;2023-03-04T14:31:13;28.03;;;16.03;;
6809;SDS011;3443;48.812;9.112;2023-03-04T14:33:42;25.10;;;14.07;;
6809;SDS011;3443;48.812;9.112;2023-03-04T14:36:14;29.10;;;14.90;;
6809;SDS011;3443;48.812;9.112;2023-03-04T14:38:49;30.40;;;17.87;;
6809;SDS011;3443;48.812;9.112;2023-03-04T14:41:27;37.23;;;17.87;;
6809;SDS011;3443;48.812;9.112;2023-03-04T14:43:58;30.17;;;18.47;;
6809;SDS011;3443;48.812;9.112;2023-03-04T14:46:35;30.40;;;17.63;;
6809;SDS011;3443;48.812;9.112;2023-03-04T14:49:08;31.57;;;17.63;;
6809;SDS011;3443;48.812;9.112;2023-03-04T14:59:43;28.20;;;16.60;;
6809;SDS011;3443;48.812;9.112;2023-03-04T15:02:16;30.33;;;17.70;;
6809;SDS011;3443;48.812;9.112;2023-03-04T15:05:00;31.00;;;18.70;;
6809;SDS011;3443;48.812;9.112;2023-03-04T15:07:33;34.03;;;17.37;;
6809;SDS011;3443;48.812;9.112;2023-03-04T15:10:00;31.00;;;18.33;;
6809;SDS011;3443;48.812;9.112;2023-03-04T15:12:29;28.50;;;17.10;;
6809;SDS011;3443;48.812;9.112;2023-03-04T15:14:57;29.50;;;17.43;;
6809;SDS011;3443;48.812;9.112;2023-03-04T15:17:35;31.30;;;17.03;;
6809;SDS011;3443;48.812;9.112;2023-03-04T15:22:32;30.83;;;17.37;;
6809;SDS011;3443;48.812;9.112;2023-03-04T15:24:59;30.20;;;17.93;;
6809;SDS011;3443;48.812;9.112;2023-03-04T15:27:25;30.90;;;18.10;;
6809;SDS011;3443;48.812;9.112;2023-03-04T15:29:52;26.80;;;16.63;;
6809;SDS011;3443;48.812;9.112;2023-03-04T15:32:22;30.37;;;17.17;;
6809;SDS011;3443;48.812;9.112;2023-03-04T15:34:52;34.80;;;18.30;;
6809;SDS011;3443;48.812;9.112;2023-03-04T15:37:21;36.20;;;19.10;;
6809;SDS011;3443;48.812;9.112;2023-03-04T15:39:51;35.93;;;19.13;;
6809;SDS011;3443;48.812;9.112;2023-03-04T15:42:19;32.00;;;18.57;;
6809;SDS011;3443;48.812;9.112;2023-03-04T15:44:45;33.83;;;18.47;;
6809;SDS011;3443;48.812;9.112;2023-03-04T15:47:11;35.87;;;17.90;;
6809;SDS011;3443;48.812;9.112;2023-03-04T15:49:41;34.57;;;17.77;;
6809;SDS011;3443;48.812;9.112;2023-03-04T15:52:18;35.13;;;18.53;;
6809;SDS011;3443;48.812;9.112;2023-03-04T15:54:47;33.13;;;19.03;;
6809;SDS011;3443;48.812;9.112;2023-03-04T15:57:20;35.77;;;17.90;;
6809;SDS011;3443;48.812;9.112;2023-03-04T15:59:48;29.70;;;18.00;;
6809;SDS011;3443;48.812;9.112;2023-03-04T16:02:18;31.93;;;18.30;;
6809;SDS011;3443;48.812;9.112;2023-03-04T16:04:48;33.50;;;18.20;;
6809;SDS011;3443;48.812;9.112;2023-03-04T16:07:17;31.47;;;17.53;;
6809;SDS011;3443;48.812;9.112;2023-03-04T16:09:45;31.60;;;18.13;;
6809;SDS011;3443;48.812;9.112;2023-03-04T16:12:19;30.47;;;16.50;;
6809;SDS011;3443;48.812;9.112;2023-03-04T16:14:45;37.83;;;18.10;;
6809;SDS011;3443;48.812;9.112;2023-03-04T16:17:11;32.07;;;17.07;;
6809;SDS011;3443;48.812;9.112;2023-03-04T16:19:36;33.87;;;18.10;;
6809;SDS011;3443;48.812;9.112;2023-03-04T16:22:02;37.77;;;18.20;;
6809;SDS011;3443;48.812;9.112;2023-03-04T16:24:28;33.23;;;16.93;;
6809;SDS011;3443;48.812;9.112;2023-03-04T16:26:58;31.30;;;17.93;;
6809;SDS011;3443;48.812;9.112;2023-03-04T16:29:23;29.87;;;17.33;;
6809;SDS011;3443;48.812;9.112;2023-03-04T16:31:49;34.20;;;17.47;;
6809;SDS011;3443;48.812;9.112;2023-03-04T16:34:14;35.03;;;18.30;;
6809;SDS011;3443;48.812;9.112;2023-03-04T16:36:40;33.33;;;16.40;;
6809;SDS011;3443;48.812;9.112;2023-03-04T16:39:06;34.07;;;18.63;;
6809;SDS011;3443;48.812;9.112;2023-03-04T16:41:48;32.50;;;18.33;;
6809;SDS011;3443;48.812;9.112;2023-03-04T16:44:14;29.93;;;17.97;;
6809;SDS011;3443;48.812;9.112;2023-03-04T16:46:40;37.73;;;18.93;;
6809;SDS011;3443;48.812;9.112;2023-03-04T16:49:05;30.67;;;18.07;;
6809;SDS011;3443;48.812;9.112;2023-03-04T16:51:33;33.00;;;18.93;;
6809;SDS011;3443;48.812;9.112;2023-03-04T16:54:04;34.90;;;17.33;;
6809;SDS011;3443;48.812;9.112;2023-03-04T16:56:32;33.53;;;18.10;;
6809;SDS011;3443;48.812;9.112;2023-03-04T16:58:57;36.93;;;18.67;;
6809;SDS011;3443;48.812;9.112;2023-03-04T17:01:25;33.47;;;18.07;;
6809;SDS011;3443;48.812;9.112;2023-03-04T17:03:57;33.90;;;18.33;;
6809;SDS011;3443;48.812;9.112;2023-03-04T17:06:23;32.67;;;17.60;;
6809;SDS011;3443;48.812;9.112;2023-03-04T17:08:49;33.40;;;18.00;;
6809;SDS011;3443;48.812;9.112;2023-03-04T17:11:16;33.23;;;17.43;;
6809;SDS011;3443;48.812;9.112;2023-03-04T17:13:47;33.10;;;17.03;;